Time;durP1;ratioP1;P1;durP2;ratioP2;P2;SDS_P1;SDS_P2;PMS_P1;PMS_P2;Temp;Humidity;BMP_temperature;BMP_pressure;BME280_temperature;BME280_humidity;BME280_pressure;Samples;Min_cycle;Max_cycle;Signal;HPM_P1;HPM_P2
2021/04/10 00:00:25;;;;;;;;;;;;;;;18.72;32.10;99392.91;4397213;32;19963;-55
2021/04/10 00:02:51;;;;;;;;;;;;;;;18.64;32.23;99379.72;4397241;32;20332;-56
2021/04/10 00:05:16;;;;;;;;;;;;;;;18.60;31.42;99383.22;4398459;32;19995;-53
2021/04/10 00:07:42;;;;;;;;;;;;;;;18.57;31.94;99372.62;4398871;32;19972;-55
2021/04/10 00:10:08;;;;;;;;;;;;;;;18.61;31.72;99370.03;4397582;32;19955;-55
2021/04/10 00:12:34;;;;;;;;;;;;;;;18.64;31.25;99370.06;4399333;32;19998;-56
2021/04/10 00:15:00;;;;;;;;;;;;;;;18.63;31.98;99368.28;4398679;32;19973;-55
2021/04/10 00:17:26;;;;;;;;;;;;;;;18.61;31.48;99375.28;4398243;32;19958;-56
2021/04/10 00:19:52;;;;;;;;;;;;;;;18.61;31.57;99359.47;4397689;32;19959;-56
2021/04/10 00:22:18;;;;;;;;;;;;;;;18.70;31.44;99358.63;4398402;32;20391;-55
2021/04/10 00:24:43;;;;;;;;;;;;;;;18.68;32.16;99376.19;4398697;32;20027;-55
2021/04/10 00:27:09;;;;;;;;;;;;;;;18.61;32.04;99372.66;4397275;32;19981;-55
2021/04/10 00:29:35;;;;;;;;;;;;;;;18.65;32.34;99370.91;4397760;32;19966;-57
2021/04/10 00:32:01;;;;;;;;;;;;;;;18.57;32.27;99376.16;4398987;32;19992;-56
2021/04/10 00:34:27;;;;;;;;;;;;;;;18.57;32.57;99376.16;4399361;32;19954;-56
2021/04/10 00:36:53;;;;;;;;;;;;;;;18.58;33.02;99374.41;4398074;32;20044;-55
2021/04/10 00:39:19;;;;;;;;;;;;;;;18.56;31.98;99373.53;4398696;32;20298;-57
2021/04/10 00:41:45;;;;;;;;;;;;;;;18.61;32.85;99377.94;4397753;32;19950;-52
2021/04/10 00:44:11;;;;;;;;;;;;;;;18.59;31.57;99377.06;4397334;32;19950;-54
2021/04/10 00:46:37;;;;;;;;;;;;;;;18.58;32.04;99377.03;4398138;32;20335;-56
2021/04/10 00:49:02;;;;;;;;;;;;;;;18.53;31.59;99383.19;4398493;32;19977;-54
2021/04/10 00:51:28;;;;;;;;;;;;;;;18.57;31.87;99384.09;4399273;32;19963;-55
2021/04/10 00:53:54;;;;;;;;;;;;;;;18.57;32.05;99399.00;4401868;32;19965;-54
2021/04/10 00:56:20;;;;;;;;;;;;;;;18.56;32.25;99407.78;4400891;32;19962;-52
2021/04/10 00:58:46;;;;;;;;;;;;;;;18.59;32.76;99413.09;4400517;32;19992;-54
2021/04/10 01:01:12;;;;;;;;;;;;;;;18.64;33.02;99411.34;4399748;32;19986;-54
2021/04/10 01:03:38;;;;;;;;;;;;;;;18.63;32.26;99399.03;4400253;32;19950;-56
2021/04/10 01:06:04;;;;;;;;;;;;;;;18.62;33.48;99405.19;4401219;32;19989;-57
2021/04/10 01:08:30;;;;;;;;;;;;;;;18.59;32.77;99402.56;4399877;32;19966;-56
2021/04/10 01:10:56;;;;;;;;;;;;;;;18.54;32.64;99395.50;4400283;32;19958;-56
2021/04/10 01:13:22;;;;;;;;;;;;;;;18.52;32.68;99394.59;4400974;32;19993;-55
2021/04/10 01:15:48;;;;;;;;;;;;;;;18.56;32.90;99397.25;4401751;32;20352;-54
2021/04/10 01:18:14;;;;;;;;;;;;;;;18.54;33.65;99400.75;4398997;32;20086;-55
2021/04/10 01:20:40;;;;;;;;;;;;;;;18.53;33.05;99391.09;4400014;32;19950;-52
2021/04/10 01:23:06;;;;;;;;;;;;;;;18.56;33.32;99392.88;4398953;32;19969;-55
2021/04/10 01:25:31;;;;;;;;;;;;;;;18.58;32.98;99392.84;4402186;32;19958;-54
2021/04/10 01:27:57;;;;;;;;;;;;;;;18.58;33.47;99395.50;4401937;32;19954;-56
2021/04/10 01:30:23;;;;;;;;;;;;;;;18.58;32.67;99390.22;4402035;32;20398;-52
2021/04/10 01:32:49;;;;;;;;;;;;;;;18.52;32.81;99386.69;4402385;32;19995;-57
2021/04/10 01:35:15;;;;;;;;;;;;;;;18.53;32.88;99385.81;4401190;32;19994;-54
2021/04/10 01:37:41;;;;;;;;;;;;;;;18.53;33.48;99388.47;4402934;32;19988;-54
2021/04/10 01:40:07;;;;;;;;;;;;;;;18.57;32.86;99394.62;4402490;32;20518;-53
2021/04/10 01:42:33;;;;;;;;;;;;;;;18.56;32.75;99394.62;4402969;32;19998;-54
2021/04/10 01:44:59;;;;;;;;;;;;;;;18.56;33.04;99392.88;4402084;32;19962;-57
2021/04/10 01:47:25;;;;;;;;;;;;;;;18.53;33.82;99393.72;4400115;32;19965;-54
2021/04/10 01:49:51;;;;;;;;;;;;;;;18.54;33.62;99379.66;4402271;32;20008;-56
2021/04/10 01:52:17;;;;;;;;;;;;;;;18.54;33.59;99384.06;4401632;32;20015;-53
2021/04/10 01:54:43;;;;;;;;;;;;;;;18.53;33.88;99382.31;4400480;32;19968;-54
2021/04/10 01:57:08;;;;;;;;;;;;;;;18.51;33.72;99384.94;4400595;32;20032;-54
2021/04/10 01:59:34;;;;;;;;;;;;;;;18.44;33.32;99383.13;4401175;32;19966;-54
2021/04/10 02:02:00;;;;;;;;;;;;;;;18.46;32.80;99381.41;4400973;32;20012;-55
2021/04/10 02:04:26;;;;;;;;;;;;;;;18.53;32.70;99382.31;4398966;32;20022;-56
2021/04/10 02:06:52;;;;;;;;;;;;;;;18.53;33.29;99384.97;4401045;32;19951;-53
2021/04/10 02:09:18;;;;;;;;;;;;;;;18.54;32.55;99384.94;4399181;32;20001;-54
2021/04/10 02:11:44;;;;;;;;;;;;;;;18.56;33.08;99381.44;4400615;32;20007;-55
2021/04/10 02:14:10;;;;;;;;;;;;;;;18.51;31.75;99379.66;4401853;32;19954;-54
2021/04/10 02:16:36;;;;;;;;;;;;;;;18.52;32.79;99389.34;4401600;32;19962;-55
2021/04/10 02:19:02;;;;;;;;;;;;;;;18.51;32.66;99384.03;4400365;32;19991;-54
2021/04/10 02:21:28;;;;;;;;;;;;;;;18.50;34.11;99387.56;4399182;32;19989;-52
2021/04/10 02:23:54;;;;;;;;;;;;;;;18.49;32.28;99380.53;4400531;32;20047;-53
2021/04/10 02:26:20;;;;;;;;;;;;;;;18.50;31.82;99391.09;4400225;32;19943;-55
2021/04/10 02:28:46;;;;;;;;;;;;;;;18.49;33.09;99386.69;4400017;32;19980;-54
2021/04/10 02:31:11;;;;;;;;;;;;;;;18.47;33.08;99385.81;4400587;32;19951;-56
2021/04/10 02:33:37;;;;;;;;;;;;;;;18.50;33.10;99380.53;4400769;32;20589;-57
2021/04/10 02:36:03;;;;;;;;;;;;;;;18.47;32.65;99388.44;4401182;32;20005;-57
2021/04/10 02:38:29;;;;;;;;;;;;;;;18.46;32.91;99397.22;4401380;32;19964;-55
2021/04/10 02:40:55;;;;;;;;;;;;;;;18.44;32.66;99401.59;4400772;32;20328;-52
2021/04/10 02:43:21;;;;;;;;;;;;;;;18.47;32.32;99398.09;4401516;32;19947;-55
2021/04/10 02:45:48;;;;;;;;;;;;;;;18.51;32.48;99399.84;4401307;32;20795;-52
2021/04/10 02:48:13;;;;;;;;;;;;;;;18.50;32.89;99398.09;4400636;32;20001;-57
2021/04/10 02:50:39;;;;;;;;;;;;;;;18.51;32.08;99399.84;4400357;32;19954;-56
2021/04/10 02:53:05;;;;;;;;;;;;;;;18.49;32.63;99402.50;4401470;32;20371;-52
2021/04/10 02:55:31;;;;;;;;;;;;;;;18.49;32.48;99397.25;4400226;32;19973;-53
2021/04/10 02:57:57;;;;;;;;;;;;;;;18.47;32.35;99401.63;4399904;32;19942;-56
2021/04/10 03:00:23;;;;;;;;;;;;;;;18.47;32.92;99399.00;4407402;32;20033;-53
2021/04/10 03:02:49;;;;;;;;;;;;;;;18.46;32.50;99401.59;4417223;32;19962;-54
2021/04/10 03:05:14;;;;;;;;;;;;;;;18.47;32.77;99396.34;4414753;32;19965;-54
2021/04/10 03:07:40;;;;;;;;;;;;;;;18.46;33.51;99404.25;4416054;32;20021;-53
2021/04/10 03:10:06;;;;;;;;;;;;;;;18.45;33.08;99411.25;4413597;32;20396;-55
2021/04/10 03:12:32;;;;;;;;;;;;;;;18.47;32.66;99414.81;4414796;32;19973;-57
2021/04/10 03:14:58;;;;;;;;;;;;;;;18.47;32.10;99413.91;4415057;32;20374;-57
2021/04/10 03:17:24;;;;;;;;;;;;;;;18.46;33.81;99418.31;4414573;32;19957;-53
2021/04/10 03:19:50;;;;;;;;;;;;;;;18.44;34.91;99408.63;4416310;32;19954;-54
2021/04/10 03:22:16;;;;;;;;;;;;;;;18.49;33.80;99413.06;4413783;32;20336;-53
2021/04/10 03:24:42;;;;;;;;;;;;;;;18.49;34.48;99407.78;4415882;32;20011;-54
2021/04/10 03:27:07;;;;;;;;;;;;;;;18.46;34.60;99406.87;4415878;32;19954;-54
2021/04/10 03:29:33;;;;;;;;;;;;;;;18.46;35.30;99405.13;4416692;32;19974;-53
2021/04/10 03:31:59;;;;;;;;;;;;;;;18.44;34.34;99404.22;4415170;32;19966;-55
2021/04/10 03:34:25;;;;;;;;;;;;;;;18.41;34.81;99406.84;4414199;32;20424;-55
2021/04/10 03:36:51;;;;;;;;;;;;;;;18.39;35.18;99398.94;4416207;32;19977;-53
2021/04/10 03:39:17;;;;;;;;;;;;;;;18.40;34.68;99399.81;4415316;32;20023;-53
2021/04/10 03:41:43;;;;;;;;;;;;;;;18.41;34.45;99396.31;4415319;32;19998;-53
2021/04/10 03:44:09;;;;;;;;;;;;;;;18.40;34.25;99398.06;4416386;32;19965;-55
2021/04/10 03:46:34;;;;;;;;;;;;;;;18.40;33.46;99397.19;4415679;32;20302;-55
2021/04/10 03:49:00;;;;;;;;;;;;;;;18.42;33.59;99400.69;4415425;32;19954;-55
2021/04/10 03:51:27;;;;;;;;;;;;;;;18.37;34.76;99397.19;4415391;32;20413;-55
2021/04/10 03:53:53;;;;;;;;;;;;;;;18.37;34.41;99405.09;4415355;32;19995;-53
2021/04/10 03:56:19;;;;;;;;;;;;;;;18.37;33.79;99397.19;4413688;32;19950;-56
2021/04/10 03:58:45;;;;;;;;;;;;;;;18.38;34.22;99402.44;4414997;32;20358;-54
2021/04/10 04:01:10;;;;;;;;;;;;;;;18.39;34.20;99403.34;4415686;32;19999;-55
2021/04/10 04:03:36;;;;;;;;;;;;;;;18.41;34.32;99409.50;4416308;32;20406;-56
2021/04/10 04:06:02;;;;;;;;;;;;;;;18.43;33.94;99402.47;4415618;32;19980;-56
2021/04/10 04:08:28;;;;;;;;;;;;;;;18.38;34.62;99405.06;4414519;32;20531;-57
2021/04/10 04:10:54;;;;;;;;;;;;;;;18.39;34.46;99421.78;4413091;32;20040;-53
2021/04/10 04:13:20;;;;;;;;;;;;;;;18.39;34.98;99419.16;4415405;32;19942;-56
2021/04/10 04:15:46;;;;;;;;;;;;;;;18.36;34.22;99422.63;4415601;32;20031;-55
2021/04/10 04:18:12;;;;;;;;;;;;;;;18.38;36.10;99425.28;4413534;32;19959;-57
2021/04/10 04:20:38;;;;;;;;;;;;;;;18.35;35.54;99423.50;4414368;32;19958;-54
2021/04/10 04:23:03;;;;;;;;;;;;;;;18.34;36.04;99426.16;4415405;32;19981;-54
2021/04/10 04:25:29;;;;;;;;;;;;;;;18.34;35.95;99434.06;4413191;32;20329;-57
2021/04/10 04:27:55;;;;;;;;;;;;;;;18.35;35.47;99441.09;4414205;32;19946;-55
2021/04/10 04:30:21;;;;;;;;;;;;;;;18.33;35.10;99440.19;4405737;32;19951;-52
2021/04/10 04:32:47;;;;;;;;;;;;;;;18.40;35.34;99449.91;4412194;32;19965;-55
2021/04/10 04:35:13;;;;;;;;;;;;;;;18.39;35.04;99448.16;4415166;32;20001;-53
2021/04/10 04:37:40;;;;;;;;;;;;;;;18.35;34.35;99451.66;4415618;32;19972;-56
2021/04/10 04:40:06;;;;;;;;;;;;;;;18.33;34.65;99458.63;4415805;32;19966;-56
2021/04/10 04:42:32;;;;;;;;;;;;;;;18.33;35.91;99453.38;4413620;32;19996;-53
2021/04/10 04:44:58;;;;;;;;;;;;;;;18.33;34.13;99453.38;4413634;32;19958;-55
2021/04/10 04:47:24;;;;;;;;;;;;;;;18.33;35.54;99458.63;4412557;32;19994;-57
2021/04/10 04:49:50;;;;;;;;;;;;;;;18.34;33.75;99461.28;4414796;32;19954;-53
2021/04/10 04:52:15;;;;;;;;;;;;;;;18.31;36.33;99460.37;4414985;32;19997;-54
2021/04/10 04:54:42;;;;;;;;;;;;;;;18.30;35.17;99470.06;4415360;32;19962;-57
2021/04/10 04:57:07;;;;;;;;;;;;;;;18.33;36.37;99464.81;4414702;32;20015;-56
2021/04/10 04:59:33;;;;;;;;;;;;;;;18.33;34.58;99469.19;4413753;32;20012;-55
2021/04/10 05:01:59;;;;;;;;;;;;;;;18.31;35.84;99476.19;4414334;32;19962;-56
2021/04/10 05:04:25;;;;;;;;;;;;;;;18.30;34.82;99482.34;4413995;32;19961;-54
2021/04/10 05:06:51;;;;;;;;;;;;;;;18.32;35.66;99486.75;4414105;32;19962;-55
2021/04/10 05:09:17;;;;;;;;;;;;;;;18.31;37.07;99497.28;4412835;32;19998;-53
2021/04/10 05:11:43;;;;;;;;;;;;;;;18.30;34.79;99500.78;4414664;32;20434;-54
2021/04/10 05:14:10;;;;;;;;;;;;;;;18.33;35.40;99495.53;4414701;32;19964;-57
2021/04/10 05:16:36;;;;;;;;;;;;;;;18.32;35.47;99504.31;4414815;32;19946;-52
2021/04/10 05:19:02;;;;;;;;;;;;;;;18.33;35.30;99511.34;4414892;32;20036;-53
2021/04/10 05:21:28;;;;;;;;;;;;;;;18.34;35.70;99518.41;4413399;32;20033;-52
2021/04/10 05:23:53;;;;;;;;;;;;;;;18.32;35.48;99517.50;4415727;32;20354;-57
2021/04/10 05:26:19;;;;;;;;;;;;;;;18.31;35.04;99521.00;4413772;32;19995;-55
2021/04/10 05:28:45;;;;;;;;;;;;;;;18.33;35.14;99519.25;4414009;32;20000;-52
2021/04/10 05:31:11;;;;;;;;;;;;;;;18.30;36.79;99527.16;4415024;32;20012;-55
2021/04/10 05:33:37;;;;;;;;;;;;;;;18.28;35.60;99531.53;4414813;32;19969;-56
2021/04/10 05:36:03;;;;;;;;;;;;;;;18.28;36.83;99535.06;4414274;32;19989;-56
2021/04/10 05:38:29;;;;;;;;;;;;;;;18.24;36.51;99541.16;4416132;32;20305;-54
2021/04/10 05:40:55;;;;;;;;;;;;;;;18.26;35.75;99542.06;4417590;32;20009;-54
2021/04/10 05:43:20;;;;;;;;;;;;;;;18.28;35.90;99549.97;4416303;32;19960;-54
2021/04/10 05:45:46;;;;;;;;;;;;;;;18.31;35.31;99556.16;4416929;32;19977;-55
2021/04/10 05:48:12;;;;;;;;;;;;;;;18.32;36.84;99562.31;4416146;32;20526;-55
2021/04/10 05:50:38;;;;;;;;;;;;;;;18.26;36.14;99561.41;4417676;32;19965;-57
2021/04/10 05:53:04;;;;;;;;;;;;;;;18.28;36.16;99563.16;4416754;32;20004;-56
2021/04/10 05:55:30;;;;;;;;;;;;;;;18.28;37.22;99563.16;4417013;32;19973;-55
2021/04/10 05:57:56;;;;;;;;;;;;;;;18.26;36.51;99565.78;4415973;32;20389;-53
2021/04/10 06:00:22;;;;;;;;;;;;;;;18.25;38.56;99571.91;4416876;32;19965;-55
2021/04/10 06:02:48;;;;;;;;;;;;;;;18.21;37.50;99571.03;4417571;32;20024;-53
2021/04/10 06:05:14;;;;;;;;;;;;;;;18.23;36.07;99577.19;4415788;32;19992;-52
2021/04/10 06:07:40;;;;;;;;;;;;;;;18.28;36.77;99574.59;4411014;32;19962;-57
2021/04/10 06:10:06;;;;;;;;;;;;;;;18.25;37.14;99577.19;4416354;32;19974;-56
2021/04/10 06:12:33;;;;;;;;;;;;;;;18.26;35.07;99579.84;4416770;32;19998;-54
2021/04/10 06:14:59;;;;;;;;;;;;;;;18.25;36.53;99578.09;4416730;32;19965;-56
2021/04/10 06:17:25;;;;;;;;;;;;;;;18.24;35.43;99581.59;4416751;32;19985;-52
2021/04/10 06:19:51;;;;;;;;;;;;;;;18.31;36.09;99590.44;4415556;32;19991;-55
2021/04/10 06:22:17;;;;;;;;;;;;;;;18.32;36.22;99583.38;4416364;32;19966;-56
2021/04/10 06:24:43;;;;;;;;;;;;;;;18.31;36.81;99593.06;4416552;32;20037;-53
2021/04/10 06:27:10;;;;;;;;;;;;;;;18.31;37.17;99586.91;4415999;32;19976;-57
2021/04/10 06:29:36;;;;;;;;;;;;;;;18.25;35.69;99586.00;4416533;32;20040;-57
2021/04/10 06:32:02;;;;;;;;;;;;;;;18.26;35.18;99584.22;4415175;32;19942;-57
2021/04/10 06:34:28;;;;;;;;;;;;;;;18.26;35.11;99579.84;4415839;32;19970;-57
2021/04/10 06:36:54;;;;;;;;;;;;;;;18.29;37.56;99589.53;4416441;32;19969;-55
2021/04/10 06:39:21;;;;;;;;;;;;;;;18.29;35.04;99589.53;4417144;32;19964;-51
2021/04/10 06:41:47;;;;;;;;;;;;;;;18.18;36.07;99597.34;4415783;32;20041;-52
2021/04/10 06:44:13;;;;;;;;;;;;;;;18.19;39.17;99595.59;4416064;32;19981;-54
2021/04/10 06:46:39;;;;;;;;;;;;;;;18.17;38.12;99589.44;4415250;32;20015;-54
2021/04/10 06:49:05;;;;;;;;;;;;;;;18.10;39.42;99593.75;4410459;32;20006;-53
2021/04/10 06:51:31;;;;;;;;;;;;;;;18.15;36.50;99597.31;4415449;32;19957;-54
2021/04/10 06:53:57;;;;;;;;;;;;;;;18.22;36.09;99599.16;4415730;32;20007;-54
2021/04/10 06:56:24;;;;;;;;;;;;;;;18.31;35.64;99605.34;4414892;32;20434;-54
2021/04/10 06:58:50;;;;;;;;;;;;;;;18.36;35.56;99598.38;4415207;32;19959;-51
2021/04/10 07:01:16;;;;;;;;;;;;;;;18.38;35.51;99601.91;4411846;32;19970;-53
2021/04/10 07:03:42;;;;;;;;;;;;;;;18.35;35.40;99604.53;4411531;32;19965;-53
2021/04/10 07:06:08;;;;;;;;;;;;;;;18.37;36.02;99602.78;4413119;32;20305;-54
2021/04/10 07:08:34;;;;;;;;;;;;;;;18.38;34.35;99607.19;4415387;32;19974;-54
2021/04/10 07:11:01;;;;;;;;;;;;;;;18.39;35.14;99601.03;4414903;32;20055;-55
2021/04/10 07:13:27;;;;;;;;;;;;;;;18.41;35.67;99607.19;4414939;32;19994;-54
2021/04/10 07:15:53;;;;;;;;;;;;;;;18.44;34.88;99609.00;4415662;32;19950;-54
2021/04/10 07:18:19;;;;;;;;;;;;;;;18.44;35.20;99619.53;4414111;32;20016;-55
2021/04/10 07:20:45;;;;;;;;;;;;;;;18.46;35.76;99610.78;4415704;32;19991;-51
2021/04/10 07:23:11;;;;;;;;;;;;;;;18.46;34.80;99618.69;4414550;32;19946;-54
2021/04/10 07:25:37;;;;;;;;;;;;;;;18.46;34.71;99612.50;4414543;32;19961;-54
2021/04/10 07:28:04;;;;;;;;;;;;;;;18.47;34.74;99619.53;4414196;32;19993;-52
2021/04/10 07:30:30;;;;;;;;;;;;;;;18.47;35.07;99619.53;4414782;32;20058;-54
2021/04/10 07:32:56;;;;;;;;;;;;;;;18.49;36.22;99621.34;4414870;32;19999;-55
2021/04/10 07:35:23;;;;;;;;;;;;;;;18.46;34.80;99618.69;4414447;32;19957;-53
2021/04/10 07:37:49;;;;;;;;;;;;;;;18.47;35.03;99631.00;4414896;32;19992;-55
2021/04/10 07:40:15;;;;;;;;;;;;;;;18.48;35.29;99631.84;4413877;32;20327;-55
2021/04/10 07:42:41;;;;;;;;;;;;;;;18.48;35.00;99629.22;4415381;32;19962;-53
2021/04/10 07:45:07;;;;;;;;;;;;;;;18.49;34.99;99629.25;4412469;32;20484;-54
2021/04/10 07:47:33;;;;;;;;;;;;;;;18.53;35.34;99633.66;4412895;32;19981;-50
2021/04/10 07:49:59;;;;;;;;;;;;;;;18.56;34.61;99634.56;4414978;32;20004;-56
2021/04/10 07:52:25;;;;;;;;;;;;;;;18.53;34.87;99625.75;4414882;32;19950;-55
2021/04/10 07:54:50;;;;;;;;;;;;;;;18.54;34.56;99638.06;4413027;32;19950;-55
2021/04/10 07:57:16;;;;;;;;;;;;;;;18.58;34.48;99638.06;4411978;32;19966;-54
2021/04/10 07:59:42;;;;;;;;;;;;;;;18.59;34.06;99639.88;4411321;32;19962;-53
2021/04/10 08:02:08;;;;;;;;;;;;;;;18.61;34.43;99641.63;4412007;32;20339;-53
2021/04/10 08:04:34;;;;;;;;;;;;;;;18.60;33.95;99639.88;4414071;32;19950;-53
2021/04/10 08:07:00;;;;;;;;;;;;;;;18.63;33.96;99644.28;4413429;32;19974;-53
2021/04/10 08:09:26;;;;;;;;;;;;;;;18.63;34.24;99644.28;4412273;32;20380;-56
2021/04/10 08:11:52;;;;;;;;;;;;;;;18.53;36.83;99645.97;4411340;32;20842;-52
2021/04/10 08:14:18;;;;;;;;;;;;;;;18.39;36.79;99648.47;4413978;32;19958;-54
2021/04/10 08:16:44;;;;;;;;;;;;;;;18.35;35.89;99651.97;4413224;32;19997;-55
2021/04/10 08:19:10;;;;;;;;;;;;;;;18.50;34.98;99660.00;4413334;32;20552;-52
2021/04/10 08:21:36;;;;;;;;;;;;;;;18.59;35.13;99661.84;4411378;32;19962;-54
2021/04/10 08:24:02;;;;;;;;;;;;;;;18.59;34.47;99666.25;4413573;32;20009;-54
2021/04/10 08:26:28;;;;;;;;;;;;;;;18.65;34.68;99666.28;4413595;32;21703;-51
2021/04/10 08:28:54;;;;;;;;;;;;;;;18.64;34.36;99668.06;4413603;32;19989;-52
2021/04/10 08:31:20;;;;;;;;;;;;;;;18.66;34.13;99675.94;4411435;32;20018;-52
2021/04/10 08:33:46;;;;;;;;;;;;;;;18.61;34.51;99675.91;4398397;32;20042;-51
2021/04/10 08:36:12;;;;;;;;;;;;;;;18.60;34.24;99679.41;4410520;32;19939;-55
2021/04/10 08:38:38;;;;;;;;;;;;;;;18.63;34.40;99673.31;4413347;32;19976;-52
2021/04/10 08:41:04;;;;;;;;;;;;;;;18.67;33.81;99677.72;4412132;32;20003;-53
2021/04/10 08:43:30;;;;;;;;;;;;;;;18.65;34.38;99682.09;4413260;32;20545;-53
2021/04/10 08:45:56;;;;;;;;;;;;;;;18.62;34.22;99682.94;4413544;32;19968;-53
2021/04/10 08:48:22;;;;;;;;;;;;;;;18.67;33.79;99683.91;4411473;32;19962;-50
2021/04/10 08:50:50;;;;;;;;;;;;;;;18.64;33.71;99685.62;4412957;32;20436;-53
2021/04/10 08:53:16;;;;;;;;;;;;;;;18.61;34.17;99680.31;4411236;32;20294;-54
2021/04/10 08:55:42;;;;;;;;;;;;;;;18.63;35.12;99675.94;4412170;32;19980;-50
2021/04/10 08:58:08;;;;;;;;;;;;;;;18.60;34.07;99681.19;4410441;32;19983;-52
2021/04/10 09:00:34;;;;;;;;;;;;;;;18.47;34.85;99681.09;4411518;32;19977;-50
2021/04/10 09:03:00;;;;;;;;;;;;;;;18.47;35.21;99678.44;4412536;32;19999;-51
2021/04/10 09:05:26;;;;;;;;;;;;;;;18.47;36.39;99675.81;4413664;32;20043;-54
2021/04/10 09:07:52;;;;;;;;;;;;;;;18.55;35.60;99681.16;4413286;32;19939;-50
2021/04/10 09:10:18;;;;;;;;;;;;;;;18.67;35.44;99683.00;4411861;32;20002;-51
2021/04/10 09:12:44;;;;;;;;;;;;;;;18.65;35.38;99679.47;4415953;32;20006;-51
2021/04/10 09:15:10;;;;;;;;;;;;;;;18.66;36.37;99684.75;4416735;32;19962;-53
2021/04/10 09:17:36;;;;;;;;;;;;;;;18.65;35.70;99692.66;4417149;32;20048;-51
2021/04/10 09:20:02;;;;;;;;;;;;;;;18.75;35.81;99698.88;4416510;32;20010;-49
2021/04/10 09:22:28;;;;;;;;;;;;;;;18.71;35.65;99694.47;4414178;32;19988;-50
2021/04/10 09:24:54;;;;;;;;;;;;;;;18.73;35.23;99693.59;4414083;32;19993;-54
2021/04/10 09:27:20;;;;;;;;;;;;;;;18.65;36.07;99692.66;4415449;32;20100;-51
2021/04/10 09:29:46;;;;;;;;;;;;;;;18.56;36.28;99703.09;4418032;32;19986;-53
2021/04/10 09:32:11;;;;;;;;;;;;;;;18.58;36.72;99701.38;4416803;32;20294;-49
2021/04/10 09:34:37;;;;;;;;;;;;;;;18.49;36.69;99697.78;4416643;32;19958;-51
2021/04/10 09:37:03;;;;;;;;;;;;;;;18.66;36.62;99697.06;4415800;32;20004;-51
2021/04/10 09:39:30;;;;;;;;;;;;;;;18.81;36.08;99691.03;4417730;32;20006;-51
2021/04/10 09:41:56;;;;;;;;;;;;;;;18.80;36.18;99694.53;4417961;32;19991;-49
2021/04/10 09:44:22;;;;;;;;;;;;;;;18.89;35.85;99689.34;4416323;32;19962;-52
2021/04/10 09:46:48;;;;;;;;;;;;;;;18.89;35.95;99689.34;4407106;32;20015;-53
2021/04/10 09:49:13;;;;;;;;;;;;;;;18.75;36.32;99683.94;4401953;32;20014;-51
2021/04/10 09:51:39;;;;;;;;;;;;;;;18.80;36.33;99682.22;4401178;32;20028;-48
2021/04/10 09:54:05;;;;;;;;;;;;;;;18.80;36.39;99687.50;4401404;32;19974;-52
2021/04/10 09:56:31;;;;;;;;;;;;;;;18.84;35.84;99682.28;4402314;32;19958;-51
2021/04/10 09:58:57;;;;;;;;;;;;;;;18.99;35.93;99685.00;4401329;32;19950;-49
2021/04/10 10:01:23;;;;;;;;;;;;;;;19.05;35.38;99687.72;4401839;32;20057;-51
2021/04/10 10:03:49;;;;;;;;;;;;;;;19.04;35.70;99685.06;4402123;32;19973;-47
2021/04/10 10:06:15;;;;;;;;;;;;;;;19.09;35.04;99678.97;4399661;32;19939;-50
2021/04/10 10:08:44;;;;;;;;;;;;;;;19.23;35.42;99686.09;4400352;32;19992;-49
2021/04/10 10:11:10;;;;;;;;;;;;;;;19.21;34.84;99691.34;4401895;32;20040;-51
2021/04/10 10:13:35;;;;;;;;;;;;;;;19.18;34.93;99693.97;4401084;32;19954;-51
2021/04/10 10:16:01;;;;;;;;;;;;;;;19.19;35.08;99689.56;4401861;32;20335;-50
2021/04/10 10:18:27;;;;;;;;;;;;;;;19.19;35.04;99695.72;4401046;32;20049;-53
2021/04/10 10:20:53;;;;;;;;;;;;;;;19.24;35.17;99694.00;4400085;32;20017;-51
2021/04/10 10:23:19;;;;;;;;;;;;;;;19.23;35.52;99688.72;4399335;32;20004;-51
2021/04/10 10:25:45;;;;;;;;;;;;;;;19.27;35.24;99690.50;4401823;32;20390;-49
2021/04/10 10:28:11;;;;;;;;;;;;;;;19.26;35.69;99696.66;4401456;32;19960;-52
2021/04/10 10:30:37;;;;;;;;;;;;;;;19.26;36.62;99694.00;4399900;32;20009;-47
2021/04/10 10:33:02;;;;;;;;;;;;;;;19.30;35.44;99687.87;4401103;32;20084;-49
2021/04/10 10:35:30;;;;;;;;;;;;;;;19.29;35.71;99691.38;4401213;32;19954;-51
2021/04/10 10:37:56;;;;;;;;;;;;;;;19.36;35.79;99693.19;4400390;32;19958;-50
2021/04/10 10:40:22;;;;;;;;;;;;;;;19.37;35.36;99689.69;4401376;32;20460;-50
2021/04/10 10:42:47;;;;;;;;;;;;;;;19.42;35.36;99696.72;4402315;32;20033;-51
2021/04/10 10:45:13;;;;;;;;;;;;;;;19.36;35.07;99692.31;4400988;32;20033;-50
2021/04/10 10:47:39;;;;;;;;;;;;;;;19.37;35.36;99699.34;4401300;32;19966;-53
2021/04/10 10:50:05;;;;;;;;;;;;;;;19.35;35.13;99685.25;4400592;32;19969;-53
2021/04/10 10:52:31;;;;;;;;;;;;;;;19.38;35.35;99680.87;4401406;32;19969;-51
2021/04/10 10:54:57;;;;;;;;;;;;;;;19.37;35.07;99688.78;4401875;32;20005;-51
2021/04/10 10:57:23;;;;;;;;;;;;;;;19.33;36.14;99682.63;4400959;32;20080;-49
2021/04/10 10:59:49;;;;;;;;;;;;;;;19.20;36.30;99681.66;4401539;32;20003;-50
2021/04/10 11:02:15;;;;;;;;;;;;;;;19.30;35.54;99676.44;4400850;32;19959;-51
2021/04/10 11:04:41;;;;;;;;;;;;;;;19.30;35.46;99677.31;4400377;32;20010;-52
2021/04/10 11:07:07;;;;;;;;;;;;;;;19.33;35.62;99677.34;4399272;32;19958;-52
2021/04/10 11:09:33;;;;;;;;;;;;;;;19.38;35.86;99674.69;4401990;32;20013;-47
2021/04/10 11:11:59;;;;;;;;;;;;;;;19.40;35.82;99672.09;4400800;32;19959;-51
2021/04/10 11:14:25;;;;;;;;;;;;;;;19.17;36.20;99664.91;4401214;32;19955;-47
2021/04/10 11:16:51;;;;;;;;;;;;;;;19.22;36.22;99660.56;4398871;32;19989;-52
2021/04/10 11:19:17;;;;;;;;;;;;;;;19.38;35.76;99659.75;4401004;32;19954;-50
2021/04/10 11:21:43;;;;;;;;;;;;;;;19.42;35.78;99655.38;4400776;32;19943;-53
2021/04/10 11:24:10;;;;;;;;;;;;;;;19.42;36.34;99665.03;4400181;32;19963;-53
2021/04/10 11:26:36;;;;;;;;;;;;;;;19.47;35.50;99660.69;4400721;32;19950;-51
2021/04/10 11:29:01;;;;;;;;;;;;;;;19.50;35.16;99658.06;4400500;32;19997;-53
2021/04/10 11:31:27;;;;;;;;;;;;;;;19.57;35.35;99651.94;4415546;32;19954;-54
2021/04/10 11:33:53;;;;;;;;;;;;;;;19.55;35.11;99651.03;4413023;32;19997;-50
2021/04/10 11:36:19;;;;;;;;;;;;;;;19.56;35.35;99646.62;4412586;32;19983;-50
2021/04/10 11:38:45;;;;;;;;;;;;;;;19.56;35.42;99646.62;4413544;32;19958;-51
2021/04/10 11:41:11;;;;;;;;;;;;;;;19.60;35.21;99644.03;4407315;32;19962;-53
2021/04/10 11:43:37;;;;;;;;;;;;;;;19.60;35.24;99649.31;4397337;32;19947;-50
2021/04/10 11:46:03;;;;;;;;;;;;;;;19.61;35.21;99645.78;4411251;32;19974;-51
2021/04/10 11:48:31;;;;;;;;;;;;;;;19.62;35.16;99647.53;4416117;32;20020;-52
2021/04/10 11:50:57;;;;;;;;;;;;;;;19.62;35.13;99641.38;4416055;32;20386;-52
2021/04/10 11:53:23;;;;;;;;;;;;;;;19.62;35.12;99642.25;4413006;32;20049;-54
2021/04/10 11:55:49;;;;;;;;;;;;;;;19.64;35.23;99644.91;4415053;32;19991;-50
2021/04/10 11:58:15;;;;;;;;;;;;;;;19.65;35.10;99642.25;4414980;32;19993;-54
2021/04/10 12:00:41;;;;;;;;;;;;;;;19.64;35.03;99651.06;4413684;32;19976;-51
2021/04/10 12:03:07;;;;;;;;;;;;;;;19.63;35.05;99638.75;4414699;32;19958;-53
2021/04/10 12:05:33;;;;;;;;;;;;;;;19.64;35.06;99651.06;4414522;32;19969;-48
2021/04/10 12:07:59;;;;;;;;;;;;;;;19.63;34.88;99649.31;4415188;32;19950;-53
2021/04/10 12:10:25;;;;;;;;;;;;;;;19.63;34.85;99644.03;4414366;32;19950;-51
2021/04/10 12:12:51;;;;;;;;;;;;;;;19.60;35.12;99636.09;4412599;32;20434;-48
2021/04/10 12:15:17;;;;;;;;;;;;;;;19.60;35.11;99644.03;4412330;32;19957;-51
2021/04/10 12:17:43;;;;;;;;;;;;;;;19.57;35.10;99644.00;4414924;32;19970;-47
2021/04/10 12:20:09;;;;;;;;;;;;;;;19.57;35.08;99632.56;4414476;32;20008;-48
2021/04/10 12:22:35;;;;;;;;;;;;;;;19.56;35.20;99631.66;4413166;32;19973;-52
2021/04/10 12:25:00;;;;;;;;;;;;;;;19.54;35.43;99636.06;4414723;32;19954;-49
2021/04/10 12:27:26;;;;;;;;;;;;;;;19.52;35.40;99627.25;4413397;32;20335;-50
2021/04/10 12:29:52;;;;;;;;;;;;;;;19.52;35.44;99629.88;4414222;32;20006;-52
2021/04/10 12:32:18;;;;;;;;;;;;;;;19.38;36.03;99628.06;4413443;32;19993;-49
2021/04/10 12:34:44;;;;;;;;;;;;;;;19.38;35.85;99628.06;4414375;32;19993;-52
2021/04/10 12:37:10;;;;;;;;;;;;;;;19.44;35.89;99621.94;4410873;32;19954;-52
2021/04/10 12:39:38;;;;;;;;;;;;;;;19.45;35.62;99630.75;4413677;32;19958;-53